Time;durP1;ratioP1;P1;durP2;ratioP2;P2;SDS_P1;SDS_P2;PMS_P1;PMS_P2;Temp;Humidity;BMP_temperature;BMP_pressure;BME280_temperature;BME280_humidity;BME280_pressure;Samples;Min_cycle;Max_cycle;Signal;HPM_P1;HPM_P2
2021/01/30 00:00:50;;;;;;;11.77;6.00;;;8.10;99.90;;;;;;5053285;28;20092;-79
2021/01/30 00:03:16;;;;;;;10.82;6.15;;;8.10;99.90;;;;;;5047638;28;20106;-79
2021/01/30 00:05:43;;;;;;;11.20;5.57;;;8.10;99.90;;;;;;5060298;28;20049;-79
2021/01/30 00:08:11;;;;;;;10.98;5.85;;;8.00;99.90;;;;;;5058370;28;20073;-79
2021/01/30 00:10:37;;;;;;;9.82;5.93;;;8.00;99.90;;;;;;5061974;28;20041;-78
2021/01/30 00:13:05;;;;;;;12.20;6.00;;;8.00;99.90;;;;;;5061642;28;20050;-79
2021/01/30 00:15:32;;;;;;;13.23;5.82;;;8.00;99.90;;;;;;5045767;28;20100;-78
2021/01/30 00:17:59;;;;;;;11.40;7.03;;;8.00;99.90;;;;;;5060619;28;20067;-80
2021/01/30 00:20:27;;;;;;;12.40;5.75;;;8.00;99.90;;;;;;5055073;28;20030;-79
2021/01/30 00:22:54;;;;;;;9.50;5.70;;;8.00;99.90;;;;;;5054658;28;20060;-79
2021/01/30 00:25:23;;;;;;;10.60;6.13;;;8.00;99.90;;;;;;5045775;28;20534;-79
2021/01/30 00:27:49;;;;;;;14.50;6.22;;;8.00;99.90;;;;;;5046781;28;20129;-80
2021/01/30 00:30:20;;;;;;;12.57;6.25;;;8.00;99.90;;;;;;5048010;28;20151;-80
2021/01/30 00:32:47;;;;;;;11.25;6.63;;;8.00;99.90;;;;;;5058634;28;20142;-80
2021/01/30 00:35:15;;;;;;;12.57;6.90;;;8.00;99.90;;;;;;5055121;28;20155;-80
2021/01/30 00:37:42;;;;;;;11.68;7.00;;;8.00;99.90;;;;;;5043519;28;20080;-82
2021/01/30 00:40:10;;;;;;;14.55;6.38;;;8.00;99.90;;;;;;5043366;28;20072;-79
2021/01/30 00:42:37;;;;;;;15.60;6.28;;;8.00;99.90;;;;;;5043967;28;20081;-79
2021/01/30 00:45:05;;;;;;;13.45;6.55;;;8.00;99.90;;;;;;5047072;28;20134;-78
2021/01/30 00:47:32;;;;;;;16.80;7.45;;;8.00;99.90;;;;;;5045906;28;20049;-80
2021/01/30 00:49:59;;;;;;;13.27;6.95;;;8.00;99.90;;;;;;5046202;28;20045;-80
2021/01/30 00:52:25;;;;;;;12.25;7.13;;;8.00;99.90;;;;;;5047202;28;20076;-80
2021/01/30 00:54:52;;;;;;;12.95;7.38;;;8.00;99.90;;;;;;5046274;28;20101;-79
2021/01/30 00:57:19;;;;;;;17.42;8.02;;;7.90;99.90;;;;;;5046996;28;20073;-80
2021/01/30 00:59:46;;;;;;;13.68;7.45;;;7.90;99.90;;;;;;5040424;28;20559;-80
2021/01/30 01:02:13;;;;;;;11.95;7.40;;;7.90;99.90;;;;;;5037689;28;20113;-81
2021/01/30 01:04:42;;;;;;;15.70;8.25;;;7.90;99.90;;;;;;5039348;28;20157;-81
2021/01/30 01:07:09;;;;;;;15.18;8.07;;;7.90;99.90;;;;;;5039477;28;20080;-81
2021/01/30 01:09:36;;;;;;;14.43;7.30;;;7.90;99.90;;;;;;5041279;28;20768;-81
2021/01/30 01:12:02;;;;;;;16.88;9.27;;;7.80;99.90;;;;;;5039390;28;20096;-83
2021/01/30 01:14:29;;;;;;;13.55;8.50;;;7.80;99.90;;;;;;5040748;28;20114;-80
2021/01/30 01:16:55;;;;;;;17.45;8.93;;;7.80;99.90;;;;;;5041530;28;20088;-79
2021/01/30 01:19:21;;;;;;;20.48;10.50;;;7.70;99.90;;;;;;5044181;28;20131;-80
2021/01/30 01:21:51;;;;;;;14.30;8.90;;;7.80;99.90;;;;;;5042897;28;20050;-80
2021/01/30 01:24:20;;;;;;;16.60;9.40;;;7.80;99.90;;;;;;5043639;28;20054;-79
2021/01/30 01:26:47;;;;;;;15.57;9.48;;;7.80;99.90;;;;;;5042582;28;20053;-79
2021/01/30 01:29:15;;;;;;;16.42;9.93;;;7.80;99.90;;;;;;5041600;28;20586;-79
2021/01/30 01:31:41;;;;;;;19.65;10.20;;;7.80;99.90;;;;;;5042321;28;20087;-79
2021/01/30 01:34:08;;;;;;;16.50;9.82;;;7.80;99.90;;;;;;5041522;28;20085;-79
2021/01/30 01:36:34;;;;;;;16.90;9.55;;;7.80;99.90;;;;;;5044231;28;20081;-79
2021/01/30 01:39:01;;;;;;;14.73;9.18;;;7.80;99.90;;;;;;5046034;28;20045;-79
2021/01/30 01:41:28;;;;;;;15.98;9.18;;;7.80;99.90;;;;;;5046149;28;20041;-79
2021/01/30 01:43:54;;;;;;;18.92;9.18;;;7.80;99.90;;;;;;5046036;28;20087;-80
2021/01/30 01:46:28;;;;;;;21.17;11.23;;;7.80;99.90;;;;;;5046163;28;20095;-79
2021/01/30 01:49:00;;;;;;;16.75;10.05;;;7.80;99.90;;;;;;5046623;28;20104;-79
2021/01/30 01:51:31;;;;;;;20.20;12.57;;;7.80;99.90;;;;;;5043633;28;21195;-80
2021/01/30 01:54:02;;;;;;;21.70;12.30;;;7.80;99.90;;;;;;5046637;28;20324;-80
2021/01/30 01:56:31;;;;;;;21.25;12.60;;;7.80;99.90;;;;;;5046277;28;20092;-80
2021/01/30 01:59:03;;;;;;;20.88;12.15;;;7.70;99.90;;;;;;5047813;28;20057;-80
2021/01/30 02:01:32;;;;;;;16.92;11.10;;;7.70;99.90;;;;;;5044049;28;20468;-79
2021/01/30 02:03:59;;;;;;;22.20;11.15;;;7.60;99.90;;;;;;5049747;28;20049;-81
2021/01/30 02:06:25;;;;;;;21.08;12.13;;;7.60;99.90;;;;;;5047514;28;20068;-80
2021/01/30 02:08:52;;;;;;;17.52;11.27;;;7.60;99.90;;;;;;5046562;28;20142;-80
2021/01/30 02:11:19;;;;;;;18.23;12.20;;;7.60;99.90;;;;;;5044423;28;20041;-80
2021/01/30 02:13:51;;;;;;;19.52;11.50;;;7.60;99.90;;;;;;5044442;28;20080;-80
2021/01/30 02:16:33;;;;;;;17.20;10.80;;;7.50;99.90;;;;;;5043457;28;20061;-80
2021/01/30 02:19:28;;;;;;;17.75;11.25;;;7.40;99.90;;;;;;5047108;28;20054;-80
2021/01/30 02:22:16;;;;;;;20.77;11.32;;;7.40;99.90;;;;;;5047091;28;20050;-80
2021/01/30 02:25:35;;;;;;;21.30;10.52;;;7.30;99.90;;;;;;5045138;28;20084;-80
2021/01/30 02:28:14;;;;;;;30.02;13.75;;;7.20;99.90;;;;;;4953487;29;20090;-78
2021/01/30 02:31:15;;;;;;;17.27;9.27;;;7.20;99.90;;;;;;4953918;29;20148;-80
2021/01/30 02:34:20;;;;;;;30.85;16.88;;;7.10;99.90;;;;;;5028472;28;20072;-79
2021/01/30 02:36:54;;;;;;;33.05;19.33;;;6.60;99.90;;;;;;5036772;28;20053;-78
2021/01/30 02:39:24;;;;;;;36.00;21.73;;;6.20;99.90;;;;;;5037461;28;20073;-79
2021/01/30 02:41:56;;;;;;;41.90;22.33;;;6.00;99.90;;;;;;5037156;28;20187;-79
2021/01/30 02:44:24;;;;;;;44.03;22.38;;;5.90;99.90;;;;;;5037374;28;20113;-79
2021/01/30 02:46:55;;;;;;;44.20;24.25;;;5.80;99.90;;;;;;5040143;28;20105;-79
2021/01/30 02:49:25;;;;;;;45.65;25.98;;;5.60;99.90;;;;;;5041173;28;20056;-79
2021/01/30 02:52:02;;;;;;;56.78;28.40;;;5.60;99.90;;;;;;5039101;28;20095;-79
2021/01/30 02:54:32;;;;;;;55.33;28.63;;;5.50;99.90;;;;;;5034602;28;20053;-78
2021/01/30 02:57:00;;;;;;;51.13;27.80;;;5.40;99.90;;;;;;5033447;28;20136;-78
2021/01/30 02:59:29;;;;;;;50.08;24.83;;;5.30;99.90;;;;;;5033641;28;20132;-78
2021/01/30 03:01:55;;;;;;;52.17;27.05;;;5.20;99.90;;;;;;5035885;28;20050;-78
2021/01/30 03:04:24;;;;;;;58.03;27.58;;;5.00;99.90;;;;;;5057376;23;20051;-79
2021/01/30 03:07:12;;;;;;;55.92;29.45;;;5.00;99.90;;;;;;5025337;28;20069;-80
2021/01/30 03:09:45;;;;;;;51.75;26.63;;;4.90;99.90;;;;;;4964232;28;20046;-80
2021/01/30 03:12:21;;;;;;;;;;;4.80;99.90;;;;;;5006365;28;20427;-80
2021/01/30 03:14:53;;;;;;;48.50;25.23;;;4.70;99.90;;;;;;5006199;28;19926;-81
2021/01/30 03:17:21;;;;;;;44.53;25.10;;;4.70;99.90;;;;;;5006939;28;20570;-79
2021/01/30 03:19:48;;;;;;;47.45;25.13;;;4.60;99.90;;;;;;5007791;28;20061;-80
2021/01/30 03:22:15;;;;;;;41.75;22.80;;;4.50;99.90;;;;;;5007561;28;20112;-79
2021/01/30 03:24:45;;;;;;;43.50;22.20;;;4.40;99.90;;;;;;5005795;28;20050;-79
2021/01/30 03:27:17;;;;;;;38.45;19.77;;;4.30;99.90;;;;;;5005029;28;20061;-79
2021/01/30 03:29:44;;;;;;;29.80;17.60;;;4.30;99.90;;;;;;5004885;28;20050;-80
2021/01/30 03:32:10;;;;;;;35.13;19.98;;;4.40;99.90;;;;;;5006180;28;20054;-79
2021/01/30 03:34:38;;;;;;;36.72;18.25;;;4.30;99.90;;;;;;5007527;28;20050;-80
2021/01/30 03:37:04;;;;;;;34.97;18.20;;;4.40;99.90;;;;;;5006894;28;20089;-80
2021/01/30 03:39:30;;;;;;;28.50;15.88;;;4.40;99.90;;;;;;5007870;28;20058;-80
2021/01/30 03:41:58;;;;;;;26.08;14.98;;;4.20;99.90;;;;;;5007730;28;20092;-80
2021/01/30 03:44:24;;;;;;;24.90;15.73;;;4.20;99.90;;;;;;5004673;28;20061;-79
2021/01/30 03:46:51;;;;;;;25.80;15.30;;;4.20;99.90;;;;;;5002044;28;20073;-79
2021/01/30 03:49:17;;;;;;;33.15;17.15;;;4.20;99.90;;;;;;5002218;28;20104;-79
2021/01/30 03:51:43;;;;;;;33.05;18.00;;;4.20;99.90;;;;;;5001723;28;20066;-79
2021/01/30 03:54:10;;;;;;;30.73;17.98;;;4.30;99.90;;;;;;5002094;28;20130;-79
2021/01/30 03:56:37;;;;;;;34.47;18.33;;;4.30;99.90;;;;;;5003520;28;20053;-79
2021/01/30 03:59:04;;;;;;;32.92;19.55;;;4.30;99.90;;;;;;5002975;28;20105;-79
2021/01/30 04:01:32;;;;;;;32.55;19.45;;;4.20;99.90;;;;;;5002755;28;20077;-79
2021/01/30 04:03:58;;;;;;;35.67;20.05;;;4.10;99.90;;;;;;4999763;28;20093;-79
2021/01/30 04:06:24;;;;;;;39.30;19.75;;;4.10;99.90;;;;;;4998096;28;20078;-79
2021/01/30 04:08:51;;;;;;;34.10;20.35;;;4.00;99.90;;;;;;4996019;28;20086;-79
2021/01/30 04:11:22;;;;;;;41.13;23.25;;;3.90;99.90;;;;;;4996442;28;20129;-79
2021/01/30 04:13:48;;;;;;;39.88;23.63;;;3.90;99.90;;;;;;4994476;28;20133;-80
2021/01/30 04:16:16;;;;;;;40.45;23.55;;;3.90;99.90;;;;;;4999613;28;20058;-80
2021/01/30 04:18:42;;;;;;;40.25;23.08;;;3.90;99.90;;;;;;5000848;28;20082;-79
2021/01/30 04:21:09;;;;;;;37.85;22.23;;;3.90;99.90;;;;;;4998551;28;20073;-79
2021/01/30 04:23:35;;;;;;;40.17;23.48;;;3.90;99.90;;;;;;4998393;28;20081;-80
2021/01/30 04:26:01;;;;;;;40.17;24.75;;;3.80;99.90;;;;;;4996708;28;20134;-80
2021/01/30 04:28:28;;;;;;;43.42;25.58;;;3.70;99.90;;;;;;4997161;28;20055;-80
2021/01/30 04:30:54;;;;;;;46.03;25.33;;;3.50;99.90;;;;;;4995736;28;20146;-80
2021/01/30 04:33:22;;;;;;;43.95;25.52;;;3.50;99.90;;;;;;5002839;28;20098;-80
2021/01/30 04:35:48;;;;;;;46.60;24.13;;;3.50;99.90;;;;;;5005671;28;20081;-81
2021/01/30 04:38:15;;;;;;;41.88;24.67;;;3.40;99.90;;;;;;5005286;28;20192;-80
2021/01/30 04:40:43;;;;;;;42.97;25.40;;;3.40;99.90;;;;;;5005334;28;20054;-79
2021/01/30 04:43:16;;;;;;;45.78;26.00;;;3.40;99.90;;;;;;5006114;28;20078;-79
2021/01/30 04:45:57;;;;;;;46.85;26.35;;;3.40;99.90;;;;;;5004699;28;20065;-80
2021/01/30 04:48:48;;;;;;;45.80;24.27;;;3.40;99.90;;;;;;5003751;28;20113;-79
2021/01/30 04:51:20;;;;;;;48.30;26.05;;;3.20;99.90;;;;;;5002584;28;20111;-79
2021/01/30 04:54:02;;;;;;;52.53;27.75;;;3.20;99.90;;;;;;5003854;28;20074;-79
2021/01/30 04:56:37;;;;;;;51.78;28.90;;;3.20;99.90;;;;;;5003118;28;20089;-80
2021/01/30 04:59:11;;;;;;;50.65;26.23;;;3.10;99.90;;;;;;5003385;28;20055;-80
2021/01/30 05:01:45;;;;;;;53.75;28.40;;;3.20;99.90;;;;;;5004356;28;20046;-80
2021/01/30 05:04:20;;;;;;;49.97;27.80;;;3.10;99.90;;;;;;5003956;28;20051;-79
2021/01/30 05:07:02;;;;;;;54.38;28.63;;;3.20;99.90;;;;;;5003637;28;20527;-78
2021/01/30 05:09:34;;;;;;;50.83;27.75;;;3.10;99.90;;;;;;5005132;28;20056;-79
2021/01/30 05:12:05;;;;;;;50.35;26.67;;;3.10;99.90;;;;;;5004922;28;20046;-79
2021/01/30 05:14:36;;;;;;;47.75;26.48;;;3.10;99.90;;;;;;5005036;28;20117;-79
2021/01/30 05:17:09;;;;;;;46.95;25.25;;;3.10;99.90;;;;;;5011835;28;20054;-78
2021/01/30 05:19:39;;;;;;;;;;;3.10;99.90;;;;;;5013895;28;20089;-79
2021/01/30 05:22:08;;;;;;;45.40;25.25;;;3.10;99.90;;;;;;5012839;28;19928;-78
2021/01/30 05:24:35;;;;;;;44.75;25.27;;;3.10;99.90;;;;;;5005572;28;20506;-80
2021/01/30 05:27:21;;;;;;;42.40;25.92;;;3.10;99.90;;;;;;5004345;28;20085;-78
2021/01/30 05:29:56;;;;;;;46.30;26.80;;;3.10;99.90;;;;;;5003625;28;20169;-79
2021/01/30 05:32:31;;;;;;;43.17;27.42;;;3.20;99.90;;;;;;5002087;28;20112;-78
2021/01/30 05:35:04;;;;;;;42.25;26.00;;;3.20;99.90;;;;;;5005598;28;20546;-78
2021/01/30 05:37:35;;;;;;;44.40;29.00;;;3.10;99.90;;;;;;5006414;28;20101;-78
2021/01/30 05:40:24;;;;;;;43.25;28.80;;;3.10;99.90;;;;;;5008426;28;20069;-78
2021/01/30 05:42:58;;;;;;;46.60;29.20;;;3.20;99.90;;;;;;5008259;28;20050;-78
2021/01/30 05:45:39;;;;;;;47.15;29.65;;;3.20;99.90;;;;;;5008568;28;20058;-78
2021/01/30 05:48:10;;;;;;;43.70;29.00;;;3.20;99.90;;;;;;5011074;28;20046;-79
2021/01/30 05:50:47;;;;;;;47.53;30.73;;;3.10;99.90;;;;;;5008132;28;20043;-80
2021/01/30 05:53:18;;;;;;;48.30;28.95;;;3.10;99.90;;;;;;5007203;28;20085;-79
2021/01/30 05:55:44;;;;;;;49.22;29.35;;;3.10;99.90;;;;;;5006993;28;20082;-79
2021/01/30 05:58:13;;;;;;;50.72;30.88;;;3.10;99.90;;;;;;5006993;28;20515;-79
2021/01/30 06:00:40;;;;;;;51.33;30.75;;;3.00;99.90;;;;;;5006951;28;20415;-80
2021/01/30 06:03:09;;;;;;;51.88;29.48;;;3.00;99.90;;;;;;5010751;28;20078;-78
2021/01/30 06:05:39;;;;;;;52.85;30.42;;;3.10;99.90;;;;;;5009401;28;20074;-78
2021/01/30 06:08:13;;;;;;;49.42;28.88;;;3.10;99.90;;;;;;5014200;28;20066;-79
2021/01/30 06:10:41;;;;;;;44.55;26.65;;;3.00;99.90;;;;;;5016161;28;20039;-80
2021/01/30 06:13:13;;;;;;;45.22;24.23;;;2.80;99.90;;;;;;5013161;28;20081;-80
2021/01/30 06:15:43;;;;;;;42.75;22.40;;;2.80;99.90;;;;;;5009534;28;20066;-79
2021/01/30 06:18:35;;;;;;;45.63;23.17;;;2.70;99.90;;;;;;5008585;28;20085;-79
2021/01/30 06:21:10;;;;;;;40.10;23.15;;;2.60;99.90;;;;;;5005690;28;20074;-79
2021/01/30 06:23:38;;;;;;;38.33;22.60;;;2.60;99.90;;;;;;5006491;28;20054;-79
2021/01/30 06:26:08;;;;;;;40.70;21.67;;;2.60;99.90;;;;;;5003571;28;20061;-81
2021/01/30 06:28:40;;;;;;;41.58;23.55;;;2.70;99.90;;;;;;5007045;28;20080;-79
2021/01/30 06:31:17;;;;;;;35.10;20.77;;;2.70;99.90;;;;;;5007078;28;20050;-80
2021/01/30 06:33:47;;;;;;;38.63;21.65;;;2.60;99.90;;;;;;5007050;28;20057;-79
2021/01/30 06:36:18;;;;;;;37.28;22.13;;;2.60;99.90;;;;;;5006456;28;20069;-79
2021/01/30 06:38:48;;;;;;;38.35;21.05;;;2.50;99.90;;;;;;5005618;28;20092;-80
2021/01/30 06:41:21;;;;;;;37.67;21.45;;;2.50;99.90;;;;;;5002857;28;20101;-79
2021/01/30 06:43:53;;;;;;;35.38;20.15;;;2.50;99.90;;;;;;5005388;28;20089;-79
2021/01/30 06:46:23;;;;;;;32.63;19.20;;;2.50;99.90;;;;;;5004928;28;20455;-79
2021/01/30 06:49:57;;;;;;;34.42;20.10;;;2.40;99.90;;;;;;5007100;28;20055;-80
2021/01/30 06:53:17;;;;;;;32.72;20.20;;;2.50;99.90;;;;;;5010420;28;20054;-81
2021/01/30 07:04:08;;;;;;;;;;;;;;;;;;;;;
2021/01/30 07:07:17;;;;;;;36.35;20.50;;;2.40;99.90;;;;;;5002544;28;20061;-83
2021/01/30 07:10:31;;;;;;;37.03;21.35;;;2.30;99.90;;;;;;5010737;28;20066;-80
2021/01/30 07:13:13;;;;;;;34.60;20.35;;;2.40;99.90;;;;;;5002099;28;20062;-79
2021/01/30 07:15:45;;;;;;;36.15;21.90;;;2.40;99.90;;;;;;4996097;28;20519;-79
2021/01/30 07:18:44;;;;;;;34.15;20.65;;;2.50;99.90;;;;;;4998511;28;20058;-80
2021/01/30 07:21:16;;;;;;;33.65;19.02;;;2.40;99.90;;;;;;4981070;28;20046;-79
2021/01/30 07:23:49;;;;;;;36.78;21.98;;;2.40;99.90;;;;;;5000532;28;20058;-80
2021/01/30 07:26:20;;;;;;;;;;;2.40;99.90;;;;;;5000747;28;20054;-80
2021/01/30 07:28:53;;;;;;;38.13;20.98;;;2.40;99.90;;;;;;5000610;28;19922;-80
2021/01/30 07:31:30;;;;;;;40.85;22.05;;;2.40;99.90;;;;;;5000209;28;20050;-80
2021/01/30 07:34:04;;;;;;;38.72;22.63;;;2.30;99.90;;;;;;4997995;28;20134;-80
2021/01/30 07:36:35;;;;;;;39.42;22.60;;;2.30;99.90;;;;;;4996178;28;20077;-80
2021/01/30 07:39:19;;;;;;;40.25;23.80;;;2.30;99.90;;;;;;4994666;28;20074;-80
2021/01/30 07:41:52;;;;;;;46.67;26.23;;;2.20;99.90;;;;;;4991936;28;20133;-80
2021/01/30 07:44:24;;;;;;;44.15;24.40;;;2.30;99.90;;;;;;4993584;28;20149;-81
2021/01/30 07:47:10;;;;;;;40.80;22.00;;;2.30;99.90;;;;;;5003062;28;20082;-79
2021/01/30 07:49:39;;;;;;;46.15;26.52;;;2.40;99.90;;;;;;5003844;28;20077;-81
2021/01/30 07:52:10;;;;;;;47.25;25.38;;;2.40;99.90;;;;;;5002752;28;20078;-81
2021/01/30 07:54:45;;;;;;;48.15;26.80;;;2.40;99.90;;;;;;5003958;28;20050;-81
2021/01/30 07:57:51;;;;;;;43.90;24.33;;;2.30;99.90;;;;;;5002877;28;20077;-81
2021/01/30 08:00:22;;;;;;;48.08;26.40;;;2.30;99.90;;;;;;5003334;28;20064;-80
2021/01/30 08:03:25;;;;;;;46.75;25.70;;;2.30;99.90;;;;;;5004474;28;20082;-81
2021/01/30 08:06:27;;;;;;;46.95;26.15;;;2.30;99.90;;;;;;5002959;28;20086;-81
2021/01/30 08:09:04;;;;;;;44.25;25.13;;;2.40;99.90;;;;;;5003760;28;20471;-81
2021/01/30 08:11:34;;;;;;;39.95;22.80;;;2.30;99.90;;;;;;5001899;28;20562;-81
2021/01/30 08:14:21;;;;;;;38.28;22.08;;;2.40;99.90;;;;;;5003984;28;20050;-81
2021/01/30 08:16:57;;;;;;;38.70;22.30;;;2.40;99.90;;;;;;5002519;28;20057;-81
2021/01/30 08:19:36;;;;;;;38.83;22.45;;;2.40;99.90;;;;;;5002890;28;20082;-81
2021/01/30 08:22:08;;;;;;;36.60;21.15;;;2.50;99.90;;;;;;5003662;28;20074;-81
2021/01/30 08:24:45;;;;;;;33.38;19.25;;;2.50;99.90;;;;;;5004558;28;20089;-82
2021/01/30 08:27:18;;;;;;;36.50;20.98;;;2.50;99.90;;;;;;5004160;28;20545;-81
2021/01/30 08:29:48;;;;;;;39.35;21.77;;;2.40;99.90;;;;;;5002272;28;20078;-80
2021/01/30 08:32:39;;;;;;;37.15;21.63;;;2.40;99.90;;;;;;5002959;28;20049;-81
2021/01/30 08:35:43;;;;;;;38.45;22.67;;;2.40;99.90;;;;;;5002381;28;20181;-79
2021/01/30 08:38:11;;;;;;;40.53;20.80;;;2.40;99.90;;;;;;5001811;28;20082;-78
2021/01/30 08:40:46;;;;;;;36.50;21.92;;;2.40;99.90;;;;;;5002064;28;20085;-79
2021/01/30 08:43:21;;;;;;;34.47;21.05;;;2.40;99.90;;;;;;5001017;28;20081;-79
2021/01/30 08:45:48;;;;;;;33.53;19.70;;;2.50;99.90;;;;;;5001695;28;20050;-79
2021/01/30 08:48:31;;;;;;;37.60;21.05;;;2.50;99.90;;;;;;5004735;28;20152;-80
2021/01/30 08:50:59;;;;;;;;;;;2.50;99.90;;;;;;5005401;28;20467;-79
2021/01/30 08:53:32;;;;;;;36.55;21.13;;;2.50;99.90;;;;;;5004215;28;20370;-82
2021/01/30 08:55:59;;;;;;;30.65;18.25;;;2.40;99.90;;;;;;5001568;28;20133;-82
2021/01/30 08:58:46;;;;;;;37.33;21.52;;;2.40;99.90;;;;;;5001445;28;20082;-80
2021/01/30 09:01:43;;;;;;;36.10;21.08;;;2.50;99.90;;;;;;5001075;28;20106;-81
2021/01/30 09:07:43;;;;;;;43.88;24.60;;;2.50;99.90;;;;;;5032236;22;20519;-80
2021/01/30 09:10:35;;;;;;;42.60;24.83;;;2.50;99.90;;;;;;5018333;28;20190;-80
2021/01/30 09:13:06;;;;;;;36.92;22.05;;;2.50;99.90;;;;;;5020339;28;20050;-79
2021/01/30 09:16:00;;;;;;;42.75;25.42;;;2.50;99.90;;;;;;5019150;28;20450;-77
2021/01/30 09:18:41;;;;;;;36.90;21.75;;;2.60;99.90;;;;;;5019177;28;20108;-79
2021/01/30 09:21:11;;;;;;;35.38;22.20;;;2.70;99.90;;;;;;5019220;28;20050;-80
2021/01/30 09:23:46;;;;;;;40.20;22.40;;;2.70;99.90;;;;;;5021867;28;20172;-79
2021/01/30 09:26:26;;;;;;;36.60;22.17;;;2.70;99.90;;;;;;5020195;28;20132;-80
2021/01/30 09:28:56;;;;;;;36.50;22.25;;;2.70;99.90;;;;;;5018889;28;20061;-79
2021/01/30 09:31:24;;;;;;;36.42;22.08;;;2.70;99.90;;;;;;5024749;28;20050;-79
2021/01/30 09:34:03;;;;;;;38.83;23.00;;;2.70;99.90;;;;;;5019482;28;20054;-79
2021/01/30 09:36:36;;;;;;;36.58;21.35;;;2.70;99.90;;;;;;5018212;28;20144;-80
2021/01/30 09:39:09;;;;;;;37.63;21.05;;;2.70;99.90;;;;;;5020570;28;20073;-80
2021/01/30 09:41:37;;;;;;;35.08;20.88;;;2.60;99.90;;;;;;5023248;28;20046;-79
2021/01/30 09:44:08;;;;;;;34.55;20.15;;;2.60;99.90;;;;;;5023731;28;20054;-80
2021/01/30 09:46:38;;;;;;;31.67;19.13;;;2.70;99.90;;;;;;5022687;28;20054;-80
2021/01/30 09:49:06;;;;;;;32.58;19.50;;;2.70;99.90;;;;;;5023047;28;20058;-79
2021/01/30 09:51:37;;;;;;;30.10;18.95;;;2.70;99.90;;;;;;5012572;28;20169;-79
2021/01/30 09:54:05;;;;;;;30.95;18.13;;;2.70;99.90;;;;;;5005962;28;20485;-80
2021/01/30 09:56:36;;;;;;;31.58;18.80;;;2.80;99.90;;;;;;5017794;28;20081;-80
2021/01/30 09:59:04;;;;;;;32.92;21.48;;;2.80;99.90;;;;;;5019844;28;20042;-79
2021/01/30 10:01:34;;;;;;;29.27;18.73;;;2.70;99.90;;;;;;5015247;28;20061;-81
2021/01/30 10:04:14;;;;;;;26.48;16.17;;;2.60;99.90;;;;;;5019719;28;20056;-80
2021/01/30 10:06:41;;;;;;;25.92;16.52;;;2.70;99.90;;;;;;5019645;28;20073;-79
2021/01/30 10:09:11;;;;;;;30.70;18.02;;;2.70;99.90;;;;;;5016726;28;20474;-80
2021/01/30 10:11:40;;;;;;;25.25;16.58;;;2.70;99.90;;;;;;5009473;28;20097;-80
2021/01/30 10:14:07;;;;;;;28.30;18.30;;;2.70;99.90;;;;;;5013129;28;20217;-80
2021/01/30 10:16:35;;;;;;;25.45;16.02;;;2.80;99.90;;;;;;5020395;28;20172;-80
2021/01/30 10:19:11;;;;;;;25.20;16.30;;;2.90;99.90;;;;;;5021174;28;20085;-81
2021/01/30 10:21:40;;;;;;;26.83;17.27;;;2.80;99.90;;;;;;5020800;28;20096;-80
2021/01/30 10:24:14;;;;;;;25.40;16.20;;;2.90;99.90;;;;;;5033690;28;20057;-80
2021/01/30 10:26:41;;;;;;;25.92;16.38;;;3.00;99.90;;;;;;5024924;28;20559;-80
2021/01/30 10:29:10;;;;;;;23.60;15.75;;;3.00;99.90;;;;;;5024568;28;20049;-79
2021/01/30 10:31:41;;;;;;;24.63;16.40;;;3.00;99.90;;;;;;5028387;28;20092;-80
2021/01/30 10:34:16;;;;;;;24.45;16.25;;;3.10;99.90;;;;;;5026433;28;20054;-80
2021/01/30 10:36:48;;;;;;;26.08;17.08;;;3.00;99.90;;;;;;5029509;28;20073;-79
2021/01/30 10:39:16;;;;;;;24.50;16.90;;;3.10;99.90;;;;;;5033428;28;20482;-79
2021/01/30 10:41:43;;;;;;;25.17;17.23;;;3.10;99.90;;;;;;5020236;28;20077;-80
2021/01/30 10:44:11;;;;;;;25.08;17.25;;;3.00;99.90;;;;;;5019868;28;20099;-79
2021/01/30 10:46:40;;;;;;;23.77;15.95;;;3.00;99.90;;;;;;5018055;28;21628;-79
2021/01/30 10:49:11;;;;;;;23.48;15.85;;;3.10;99.90;;;;;;5017187;28;20060;-80
2021/01/30 10:51:37;;;;;;;25.95;17.52;;;3.10;99.90;;;;;;5021295;28;20088;-78
2021/01/30 10:54:25;;;;;;;25.75;16.67;;;3.10;99.90;;;;;;5018091;28;20469;-81
2021/01/30 10:57:09;;;;;;;24.67;17.00;;;3.30;99.90;;;;;;5016935;28;20120;-80
2021/01/30 10:59:48;;;;;;;23.80;16.40;;;3.30;99.90;;;;;;5017995;28;20073;-80
2021/01/30 11:02:26;;;;;;;24.95;16.33;;;3.40;99.90;;;;;;5017274;28;20498;-81
2021/01/30 11:05:11;;;;;;;25.48;16.48;;;3.50;99.90;;;;;;5020421;28;20518;-80
2021/01/30 11:07:44;;;;;;;22.95;15.07;;;3.50;99.90;;;;;;5017886;28;20114;-81
2021/01/30 11:10:23;;;;;;;25.02;16.40;;;3.50;99.90;;;;;;5019169;28;20090;-80
2021/01/30 11:12:50;;;;;;;21.90;14.98;;;3.40;99.90;;;;;;5018979;28;20120;-80
2021/01/30 11:15:22;;;;;;;23.10;15.25;;;3.40;99.90;;;;;;5021425;28;20540;-80
2021/01/30 11:17:49;;;;;;;23.40;15.52;;;3.50;99.90;;;;;;5020905;28;20410;-79
2021/01/30 11:20:40;;;;;;;20.85;14.63;;;3.50;99.90;;;;;;5030568;28;20045;-79
2021/01/30 11:23:11;;;;;;;23.25;15.02;;;3.50;99.90;;;;;;5022856;28;20073;-79
2021/01/30 11:25:41;;;;;;;20.65;14.23;;;3.60;99.90;;;;;;5024478;28;20132;-79
2021/01/30 11:28:09;;;;;;;20.67;14.68;;;3.60;99.90;;;;;;5023846;28;20053;-80
2021/01/30 11:30:36;;;;;;;22.85;14.95;;;3.70;99.90;;;;;;5017820;28;20057;-79
2021/01/30 11:33:08;;;;;;;19.42;13.95;;;3.70;99.90;;;;;;5019742;28;20069;-80
2021/01/30 11:35:37;;;;;;;20.02;14.75;;;3.80;99.90;;;;;;5021628;28;20077;-79
2021/01/30 11:38:06;;;;;;;19.35;13.60;;;3.80;99.90;;;;;;5021286;28;20125;-79
2021/01/30 11:40:33;;;;;;;20.67;13.25;;;3.70;99.90;;;;;;5020620;28;20077;-79
2021/01/30 11:43:00;;;;;;;18.65;13.13;;;3.70;99.90;;;;;;5031915;28;20104;-78
2021/01/30 11:45:26;;;;;;;16.27;11.88;;;3.80;99.90;;;;;;5031829;28;20088;-78
2021/01/30 11:47:53;;;;;;;18.25;12.27;;;3.80;99.90;;;;;;5033309;28;20085;-78
2021/01/30 11:50:19;;;;;;;18.23;12.05;;;3.90;99.90;;;;;;5025812;28;20129;-78
2021/01/30 11:52:46;;;;;;;17.10;12.07;;;3.90;99.90;;;;;;5020668;28;20056;-79
2021/01/30 11:55:17;;;;;;;17.45;12.80;;;3.90;99.90;;;;;;5016783;28;20129;-79
2021/01/30 11:57:44;;;;;;;18.20;13.13;;;3.90;99.90;;;;;;5017143;28;20085;-79
2021/01/30 12:00:14;;;;;;;16.92;12.18;;;4.00;99.90;;;;;;5020664;28;20546;-78
2021/01/30 12:02:41;;;;;;;16.58;12.27;;;4.10;99.90;;;;;;5018485;28;20537;-78
2021/01/30 12:05:11;;;;;;;17.77;12.23;;;4.00;99.90;;;;;;5019562;28;20105;-78
2021/01/30 12:07:38;;;;;;;17.50;11.25;;;4.10;99.90;;;;;;5018474;28;20073;-78
2021/01/30 12:10:06;;;;;;;19.25;12.63;;;4.10;99.90;;;;;;5016919;28;20518;-78
2021/01/30 12:12:32;;;;;;;18.10;12.38;;;4.20;99.90;;;;;;5014986;28;20137;-78
2021/01/30 12:14:59;;;;;;;15.52;11.68;;;4.10;99.90;;;;;;5014854;28;20155;-77
2021/01/30 12:17:35;;;;;;;17.75;12.60;;;4.00;99.90;;;;;;5013940;28;20093;-77
2021/01/30 12:20:01;;;;;;;17.05;12.15;;;4.10;99.90;;;;;;5012558;28;20060;-77
2021/01/30 12:22:28;;;;;;;19.27;13.93;;;4.10;99.90;;;;;;5012997;28;20133;-78
2021/01/30 12:24:54;;;;;;;17.33;12.60;;;4.00;99.90;;;;;;5013491;28;20137;-78
2021/01/30 12:27:20;;;;;;;20.02;13.75;;;4.00;99.90;;;;;;5013257;28;20133;-78
2021/01/30 12:29:47;;;;;;;16.38;12.18;;;4.00;99.90;;;;;;5015459;28;20085;-78
2021/01/30 12:32:14;;;;;;;19.40;13.05;;;4.10;99.90;;;;;;5013615;28;20129;-77
2021/01/30 12:34:42;;;;;;;14.70;11.88;;;4.20;99.90;;;;;;5012991;28;20136;-78
2021/01/30 12:37:08;;;;;;;16.15;11.98;;;4.30;99.90;;;;;;5012478;28;20133;-78
2021/01/30 12:39:35;;;;;;;15.68;11.45;;;4.30;99.90;;;;;;5012886;28;20132;-78
2021/01/30 12:42:01;;;;;;;16.38;11.82;;;4.30;99.90;;;;;;5013035;28;20085;-78
2021/01/30 12:44:27;;;;;;;16.35;11.95;;;4.30;99.90;;;;;;5015223;28;20089;-78
2021/01/30 12:46:54;;;;;;;15.90;12.25;;;4.40;99.90;;;;;;5014135;28;20089;-78
2021/01/30 12:49:21;;;;;;;15.38;11.27;;;4.40;99.90;;;;;;5012694;28;20098;-77
2021/01/30 12:51:48;;;;;;;14.18;10.98;;;4.40;99.90;;;;;;5012523;28;20133;-78
2021/01/30 12:54:17;;;;;;;15.90;11.27;;;4.40;99.90;;;;;;5013646;28;20085;-77
2021/01/30 12:56:44;;;;;;;15.15;11.13;;;4.40;99.90;;;;;;5012501;28;20045;-77
2021/01/30 12:59:10;;;;;;;15.38;10.90;;;4.30;99.90;;;;;;5012145;28;20607;-78
2021/01/30 13:01:37;;;;;;;13.13;10.65;;;4.40;99.90;;;;;;5012351;28;20135;-77
2021/01/30 13:04:03;;;;;;;13.38;9.63;;;4.30;99.90;;;;;;5013049;28;20132;-77
2021/01/30 13:06:30;;;;;;;14.40;10.90;;;4.40;99.90;;;;;;5011715;28;20081;-78
2021/01/30 13:08:57;;;;;;;11.75;8.68;;;4.40;99.90;;;;;;5012485;28;20135;-77
2021/01/30 13:11:23;;;;;;;13.43;8.93;;;4.40;99.90;;;;;;5012640;28;20481;-77
2021/01/30 13:13:50;;;;;;;12.45;10.00;;;4.50;99.90;;;;;;5012871;28;20085;-77
2021/01/30 13:16:16;;;;;;;11.32;9.25;;;4.50;99.90;;;;;;5012326;28;20114;-77
2021/01/30 13:18:43;;;;;;;10.68;8.77;;;4.50;99.90;;;;;;5012168;28;20422;-78